sensor_id;sensor_type;location;lat;lon;timestamp;P1;durP1;ratioP1;P2;durP2;ratioP2
54923;SDS011;40825;52.270;20.984;2023-09-07T00:01:29;13.10;;;7.10;;
54923;SDS011;40825;52.270;20.984;2023-09-07T00:03:55;11.30;;;5.90;;
54923;SDS011;40825;52.270;20.984;2023-09-07T00:06:21;14.00;;;6.90;;
54923;SDS011;40825;52.270;20.984;2023-09-07T00:08:47;13.30;;;6.10;;
54923;SDS011;40825;52.270;20.984;2023-09-07T00:11:12;10.60;;;5.80;;
54923;SDS011;40825;52.270;20.984;2023-09-07T00:13:38;14.70;;;5.80;;
54923;SDS011;40825;52.270;20.984;2023-09-07T00:16:03;11.00;;;6.90;;
54923;SDS011;40825;52.270;20.984;2023-09-07T00:18:30;12.20;;;5.90;;
54923;SDS011;40825;52.270;20.984;2023-09-07T00:20:56;11.50;;;6.30;;
54923;SDS011;40825;52.270;20.984;2023-09-07T00:23:22;12.00;;;6.70;;
54923;SDS011;40825;52.270;20.984;2023-09-07T00:25:47;12.40;;;6.60;;
54923;SDS011;40825;52.270;20.984;2023-09-07T00:28:13;11.30;;;6.10;;
54923;SDS011;40825;52.270;20.984;2023-09-07T00:30:39;12.90;;;6.70;;
54923;SDS011;40825;52.270;20.984;2023-09-07T00:33:05;14.50;;;6.40;;
54923;SDS011;40825;52.270;20.984;2023-09-07T00:35:32;11.90;;;6.10;;
54923;SDS011;40825;52.270;20.984;2023-09-07T00:37:58;15.60;;;7.70;;
54923;SDS011;40825;52.270;20.984;2023-09-07T00:40:23;13.10;;;7.10;;
54923;SDS011;40825;52.270;20.984;2023-09-07T00:42:50;14.20;;;5.60;;
54923;SDS011;40825;52.270;20.984;2023-09-07T00:45:16;11.60;;;5.90;;
54923;SDS011;40825;52.270;20.984;2023-09-07T00:47:41;13.60;;;6.10;;
54923;SDS011;40825;52.270;20.984;2023-09-07T00:50:07;15.60;;;6.30;;
54923;SDS011;40825;52.270;20.984;2023-09-07T00:52:33;12.60;;;6.30;;
54923;SDS011;40825;52.270;20.984;2023-09-07T00:55:00;11.70;;;6.30;;
54923;SDS011;40825;52.270;20.984;2023-09-07T00:57:27;11.90;;;6.70;;
54923;SDS011;40825;52.270;20.984;2023-09-07T00:59:53;12.10;;;5.80;;
54923;SDS011;40825;52.270;20.984;2023-09-07T01:02:19;11.90;;;6.20;;
54923;SDS011;40825;52.270;20.984;2023-09-07T01:04:44;11.00;;;6.00;;
54923;SDS011;40825;52.270;20.984;2023-09-07T01:09:49;11.90;;;7.00;;
54923;SDS011;40825;52.270;20.984;2023-09-07T01:12:19;12.70;;;6.20;;
54923;SDS011;40825;52.270;20.984;2023-09-07T01:14:45;11.60;;;6.20;;
54923;SDS011;40825;52.270;20.984;2023-09-07T01:17:11;13.30;;;6.80;;
54923;SDS011;40825;52.270;20.984;2023-09-07T01:19:38;14.10;;;7.40;;
54923;SDS011;40825;52.270;20.984;2023-09-07T01:22:05;11.80;;;6.20;;
54923;SDS011;40825;52.270;20.984;2023-09-07T01:24:33;13.90;;;6.50;;
54923;SDS011;40825;52.270;20.984;2023-09-07T01:27:02;13.40;;;6.00;;
54923;SDS011;40825;52.270;20.984;2023-09-07T01:29:29;14.10;;;6.20;;
54923;SDS011;40825;52.270;20.984;2023-09-07T01:31:55;11.20;;;6.30;;
54923;SDS011;40825;52.270;20.984;2023-09-07T01:34:22;13.60;;;6.20;;
54923;SDS011;40825;52.270;20.984;2023-09-07T01:36:48;10.50;;;5.90;;
54923;SDS011;40825;52.270;20.984;2023-09-07T01:39:14;12.80;;;6.50;;
54923;SDS011;40825;52.270;20.984;2023-09-07T01:41:40;11.30;;;6.30;;
54923;SDS011;40825;52.270;20.984;2023-09-07T01:44:06;14.20;;;6.50;;
54923;SDS011;40825;52.270;20.984;2023-09-07T01:46:31;13.20;;;6.80;;
54923;SDS011;40825;52.270;20.984;2023-09-07T01:48:56;11.10;;;7.10;;
54923;SDS011;40825;52.270;20.984;2023-09-07T01:51:22;15.30;;;6.40;;
54923;SDS011;40825;52.270;20.984;2023-09-07T01:53:48;15.70;;;7.30;;
54923;SDS011;40825;52.270;20.984;2023-09-07T01:56:15;13.30;;;6.80;;
54923;SDS011;40825;52.270;20.984;2023-09-07T01:58:42;11.40;;;5.60;;
54923;SDS011;40825;52.270;20.984;2023-09-07T02:01:09;15.30;;;6.60;;
54923;SDS011;40825;52.270;20.984;2023-09-07T02:03:55;12.30;;;6.10;;
54923;SDS011;40825;52.270;20.984;2023-09-07T02:06:22;13.50;;;6.40;;
54923;SDS011;40825;52.270;20.984;2023-09-07T02:08:47;12.50;;;6.20;;
54923;SDS011;40825;52.270;20.984;2023-09-07T02:11:13;13.90;;;6.50;;
54923;SDS011;40825;52.270;20.984;2023-09-07T02:13:42;11.20;;;6.10;;
54923;SDS011;40825;52.270;20.984;2023-09-07T02:16:09;11.50;;;6.40;;
54923;SDS011;40825;52.270;20.984;2023-09-07T02:18:38;15.70;;;8.30;;
54923;SDS011;40825;52.270;20.984;2023-09-07T02:21:09;15.00;;;6.60;;
54923;SDS011;40825;52.270;20.984;2023-09-07T02:23:35;13.60;;;6.40;;
54923;SDS011;40825;52.270;20.984;2023-09-07T02:26:14;14.00;;;6.40;;
54923;SDS011;40825;52.270;20.984;2023-09-07T02:28:39;12.70;;;6.70;;
54923;SDS011;40825;52.270;20.984;2023-09-07T02:31:05;12.60;;;7.10;;
54923;SDS011;40825;52.270;20.984;2023-09-07T02:33:31;13.90;;;6.10;;
54923;SDS011;40825;52.270;20.984;2023-09-07T02:35:58;13.70;;;8.40;;
54923;SDS011;40825;52.270;20.984;2023-09-07T02:38:24;14.90;;;6.70;;
54923;SDS011;40825;52.270;20.984;2023-09-07T02:40:49;12.70;;;6.40;;
54923;SDS011;40825;52.270;20.984;2023-09-07T02:43:15;11.20;;;6.30;;
54923;SDS011;40825;52.270;20.984;2023-09-07T02:45:41;15.60;;;7.50;;
54923;SDS011;40825;52.270;20.984;2023-09-07T02:48:07;14.20;;;6.60;;
54923;SDS011;40825;52.270;20.984;2023-09-07T02:50:33;14.40;;;6.90;;
54923;SDS011;40825;52.270;20.984;2023-09-07T02:53:00;11.50;;;6.60;;
54923;SDS011;40825;52.270;20.984;2023-09-07T02:55:26;12.20;;;6.00;;
54923;SDS011;40825;52.270;20.984;2023-09-07T02:57:52;12.20;;;6.40;;
54923;SDS011;40825;52.270;20.984;2023-09-07T03:00:18;11.30;;;6.30;;
54923;SDS011;40825;52.270;20.984;2023-09-07T03:02:44;13.40;;;7.20;;
54923;SDS011;40825;52.270;20.984;2023-09-07T03:05:10;11.80;;;6.20;;
54923;SDS011;40825;52.270;20.984;2023-09-07T03:07:36;13.60;;;6.90;;
54923;SDS011;40825;52.270;20.984;2023-09-07T03:10:02;13.10;;;6.50;;
54923;SDS011;40825;52.270;20.984;2023-09-07T03:12:27;13.90;;;7.70;;
54923;SDS011;40825;52.270;20.984;2023-09-07T03:14:53;13.90;;;6.90;;
54923;SDS011;40825;52.270;20.984;2023-09-07T03:17:19;15.10;;;8.20;;
54923;SDS011;40825;52.270;20.984;2023-09-07T03:19:48;14.40;;;7.90;;
54923;SDS011;40825;52.270;20.984;2023-09-07T03:22:13;12.00;;;6.80;;
54923;SDS011;40825;52.270;20.984;2023-09-07T03:24:39;11.60;;;6.50;;
54923;SDS011;40825;52.270;20.984;2023-09-07T03:27:05;16.40;;;8.40;;
54923;SDS011;40825;52.270;20.984;2023-09-07T03:29:31;13.80;;;7.00;;
54923;SDS011;40825;52.270;20.984;2023-09-07T03:31:59;13.10;;;6.80;;
54923;SDS011;40825;52.270;20.984;2023-09-07T03:34:25;15.40;;;7.30;;
54923;SDS011;40825;52.270;20.984;2023-09-07T03:36:51;13.50;;;7.00;;
54923;SDS011;40825;52.270;20.984;2023-09-07T03:39:16;13.20;;;6.80;;
54923;SDS011;40825;52.270;20.984;2023-09-07T03:41:44;14.30;;;6.80;;
54923;SDS011;40825;52.270;20.984;2023-09-07T03:44:10;13.50;;;7.10;;
54923;SDS011;40825;52.270;20.984;2023-09-07T03:46:36;14.70;;;7.40;;
54923;SDS011;40825;52.270;20.984;2023-09-07T03:49:01;16.30;;;8.20;;
54923;SDS011;40825;52.270;20.984;2023-09-07T03:51:27;11.80;;;7.20;;
54923;SDS011;40825;52.270;20.984;2023-09-07T03:53:53;13.80;;;7.80;;
54923;SDS011;40825;52.270;20.984;2023-09-07T03:56:18;13.70;;;7.00;;
54923;SDS011;40825;52.270;20.984;2023-09-07T03:58:44;12.50;;;6.80;;
54923;SDS011;40825;52.270;20.984;2023-09-07T04:01:09;14.20;;;7.10;;
54923;SDS011;40825;52.270;20.984;2023-09-07T04:03:35;14.90;;;6.90;;
54923;SDS011;40825;52.270;20.984;2023-09-07T04:06:00;12.50;;;7.20;;
54923;SDS011;40825;52.270;20.984;2023-09-07T04:08:26;12.40;;;7.40;;
54923;SDS011;40825;52.270;20.984;2023-09-07T04:10:52;14.00;;;6.70;;
54923;SDS011;40825;52.270;20.984;2023-09-07T04:13:17;12.10;;;7.50;;
54923;SDS011;40825;52.270;20.984;2023-09-07T04:15:43;13.30;;;8.20;;
54923;SDS011;40825;52.270;20.984;2023-09-07T04:18:10;13.90;;;8.80;;
54923;SDS011;40825;52.270;20.984;2023-09-07T04:20:38;14.20;;;9.00;;
54923;SDS011;40825;52.270;20.984;2023-09-07T04:23:04;15.40;;;9.10;;
54923;SDS011;40825;52.270;20.984;2023-09-07T04:25:30;15.80;;;9.20;;
54923;SDS011;40825;52.270;20.984;2023-09-07T04:27:57;15.00;;;9.60;;
54923;SDS011;40825;52.270;20.984;2023-09-07T04:30:24;14.80;;;8.80;;
54923;SDS011;40825;52.270;20.984;2023-09-07T04:32:49;18.20;;;9.30;;
54923;SDS011;40825;52.270;20.984;2023-09-07T04:35:15;13.90;;;9.50;;
54923;SDS011;40825;52.270;20.984;2023-09-07T04:37:44;13.60;;;9.00;;
54923;SDS011;40825;52.270;20.984;2023-09-07T04:40:10;16.40;;;8.80;;
54923;SDS011;40825;52.270;20.984;2023-09-07T04:42:36;15.10;;;9.10;;
54923;SDS011;40825;52.270;20.984;2023-09-07T04:45:04;15.30;;;9.30;;
54923;SDS011;40825;52.270;20.984;2023-09-07T04:47:30;16.50;;;10.30;;
54923;SDS011;40825;52.270;20.984;2023-09-07T04:49:57;14.10;;;9.00;;
54923;SDS011;40825;52.270;20.984;2023-09-07T04:52:22;16.70;;;10.40;;
54923;SDS011;40825;52.270;20.984;2023-09-07T04:54:48;13.60;;;9.30;;
54923;SDS011;40825;52.270;20.984;2023-09-07T04:57:15;21.50;;;10.50;;
54923;SDS011;40825;52.270;20.984;2023-09-07T04:59:43;15.50;;;10.20;;
54923;SDS011;40825;52.270;20.984;2023-09-07T05:02:08;15.40;;;10.60;;
54923;SDS011;40825;52.270;20.984;2023-09-07T05:04:34;16.60;;;10.50;;
54923;SDS011;40825;52.270;20.984;2023-09-07T05:06:59;19.00;;;10.60;;
54923;SDS011;40825;52.270;20.984;2023-09-07T05:09:25;16.60;;;10.90;;
54923;SDS011;40825;52.270;20.984;2023-09-07T05:11:51;19.70;;;11.80;;
54923;SDS011;40825;52.270;20.984;2023-09-07T05:14:17;18.80;;;10.70;;
54923;SDS011;40825;52.270;20.984;2023-09-07T05:16:43;17.30;;;10.40;;
54923;SDS011;40825;52.270;20.984;2023-09-07T05:19:09;17.90;;;10.60;;
54923;SDS011;40825;52.270;20.984;2023-09-07T05:21:35;18.50;;;11.50;;
54923;SDS011;40825;52.270;20.984;2023-09-07T05:24:00;17.90;;;11.20;;
54923;SDS011;40825;52.270;20.984;2023-09-07T05:26:26;21.40;;;11.70;;
54923;SDS011;40825;52.270;20.984;2023-09-07T05:28:51;20.60;;;11.10;;
54923;SDS011;40825;52.270;20.984;2023-09-07T05:31:17;21.20;;;11.80;;
54923;SDS011;40825;52.270;20.984;2023-09-07T05:33:42;19.20;;;11.00;;
54923;SDS011;40825;52.270;20.984;2023-09-07T05:36:08;23.60;;;13.10;;
54923;SDS011;40825;52.270;20.984;2023-09-07T05:38:34;24.10;;;12.80;;
54923;SDS011;40825;52.270;20.984;2023-09-07T05:40:59;21.40;;;11.20;;
54923;SDS011;40825;52.270;20.984;2023-09-07T05:43:25;22.30;;;11.50;;
54923;SDS011;40825;52.270;20.984;2023-09-07T05:45:51;26.50;;;11.80;;
54923;SDS011;40825;52.270;20.984;2023-09-07T05:48:16;23.40;;;12.10;;
54923;SDS011;40825;52.270;20.984;2023-09-07T05:50:42;24.30;;;12.80;;
54923;SDS011;40825;52.270;20.984;2023-09-07T05:53:08;22.70;;;12.50;;
54923;SDS011;40825;52.270;20.984;2023-09-07T05:55:34;20.30;;;11.50;;
54923;SDS011;40825;52.270;20.984;2023-09-07T05:57:59;20.30;;;11.00;;
54923;SDS011;40825;52.270;20.984;2023-09-07T06:00:29;22.10;;;11.80;;
54923;SDS011;40825;52.270;20.984;2023-09-07T06:02:54;20.20;;;12.00;;
54923;SDS011;40825;52.270;20.984;2023-09-07T06:05:20;22.10;;;13.10;;
54923;SDS011;40825;52.270;20.984;2023-09-07T06:07:46;23.30;;;13.20;;
54923;SDS011;40825;52.270;20.984;2023-09-07T06:10:12;20.50;;;12.70;;
54923;SDS011;40825;52.270;20.984;2023-09-07T06:12:37;19.70;;;12.50;;
54923;SDS011;40825;52.270;20.984;2023-09-07T06:15:03;19.60;;;12.60;;
54923;SDS011;40825;52.270;20.984;2023-09-07T06:17:29;18.40;;;11.70;;
54923;SDS011;40825;52.270;20.984;2023-09-07T06:19:55;19.90;;;12.20;;
54923;SDS011;40825;52.270;20.984;2023-09-07T06:22:21;18.40;;;13.20;;
54923;SDS011;40825;52.270;20.984;2023-09-07T06:24:46;17.10;;;11.60;;
54923;SDS011;40825;52.270;20.984;2023-09-07T06:27:12;19.90;;;11.90;;
54923;SDS011;40825;52.270;20.984;2023-09-07T06:29:38;20.80;;;11.40;;
54923;SDS011;40825;52.270;20.984;2023-09-07T06:32:03;16.20;;;12.00;;
54923;SDS011;40825;52.270;20.984;2023-09-07T06:34:29;20.80;;;14.50;;
54923;SDS011;40825;52.270;20.984;2023-09-07T06:36:54;19.90;;;12.00;;
54923;SDS011;40825;52.270;20.984;2023-09-07T06:39:20;21.20;;;11.90;;
54923;SDS011;40825;52.270;20.984;2023-09-07T06:41:46;18.10;;;11.60;;
54923;SDS011;40825;52.270;20.984;2023-09-07T06:44:12;21.30;;;12.80;;
54923;SDS011;40825;52.270;20.984;2023-09-07T06:46:37;18.50;;;11.40;;
54923;SDS011;40825;52.270;20.984;2023-09-07T06:49:02;17.50;;;11.50;;
54923;SDS011;40825;52.270;20.984;2023-09-07T06:51:29;19.60;;;10.70;;
54923;SDS011;40825;52.270;20.984;2023-09-07T06:53:55;22.30;;;11.90;;
54923;SDS011;40825;52.270;20.984;2023-09-07T06:56:21;17.00;;;11.30;;
54923;SDS011;40825;52.270;20.984;2023-09-07T06:58:46;18.00;;;11.90;;
54923;SDS011;40825;52.270;20.984;2023-09-07T07:01:12;17.30;;;10.90;;
54923;SDS011;40825;52.270;20.984;2023-09-07T07:03:37;18.80;;;11.30;;
54923;SDS011;40825;52.270;20.984;2023-09-07T07:06:03;16.80;;;10.80;;
54923;SDS011;40825;52.270;20.984;2023-09-07T07:08:28;19.30;;;10.30;;
54923;SDS011;40825;52.270;20.984;2023-09-07T07:10:54;16.70;;;9.90;;
54923;SDS011;40825;52.270;20.984;2023-09-07T07:13:20;19.00;;;11.20;;
54923;SDS011;40825;52.270;20.984;2023-09-07T07:15:45;16.40;;;10.20;;
54923;SDS011;40825;52.270;20.984;2023-09-07T07:18:11;21.30;;;10.40;;
54923;SDS011;40825;52.270;20.984;2023-09-07T07:20:40;20.90;;;10.80;;
54923;SDS011;40825;52.270;20.984;2023-09-07T07:23:08;18.80;;;11.30;;
54923;SDS011;40825;52.270;20.984;2023-09-07T07:25:34;20.10;;;10.70;;
54923;SDS011;40825;52.270;20.984;2023-09-07T07:28:01;18.00;;;10.30;;
54923;SDS011;40825;52.270;20.984;2023-09-07T07:30:31;23.30;;;10.80;;
54923;SDS011;40825;52.270;20.984;2023-09-07T07:33:00;21.10;;;11.10;;
54923;SDS011;40825;52.270;20.984;2023-09-07T07:35:26;18.30;;;10.10;;
54923;SDS011;40825;52.270;20.984;2023-09-07T07:37:51;19.60;;;10.70;;
54923;SDS011;40825;52.270;20.984;2023-09-07T07:40:17;21.90;;;10.30;;
54923;SDS011;40825;52.270;20.984;2023-09-07T07:42:43;18.70;;;10.60;;
54923;SDS011;40825;52.270;20.984;2023-09-07T07:45:11;17.60;;;9.90;;
54923;SDS011;40825;52.270;20.984;2023-09-07T07:47:38;19.00;;;11.30;;
54923;SDS011;40825;52.270;20.984;2023-09-07T07:50:04;23.70;;;11.50;;
54923;SDS011;40825;52.270;20.984;2023-09-07T07:52:30;18.90;;;11.00;;
54923;SDS011;40825;52.270;20.984;2023-09-07T07:54:55;19.90;;;10.90;;
54923;SDS011;40825;52.270;20.984;2023-09-07T07:57:21;22.50;;;9.60;;
54923;SDS011;40825;52.270;20.984;2023-09-07T07:59:46;20.00;;;9.90;;
54923;SDS011;40825;52.270;20.984;2023-09-07T08:02:12;20.10;;;10.10;;
54923;SDS011;40825;52.270;20.984;2023-09-07T08:04:37;17.70;;;9.10;;
54923;SDS011;40825;52.270;20.984;2023-09-07T08:07:03;16.20;;;9.90;;
54923;SDS011;40825;52.270;20.984;2023-09-07T08:09:29;16.80;;;8.50;;
54923;SDS011;40825;52.270;20.984;2023-09-07T08:11:55;22.20;;;9.00;;
54923;SDS011;40825;52.270;20.984;2023-09-07T08:14:22;19.90;;;8.70;;
54923;SDS011;40825;52.270;20.984;2023-09-07T08:16:49;17.40;;;8.20;;
54923;SDS011;40825;52.270;20.984;2023-09-07T08:19:14;20.90;;;10.30;;
54923;SDS011;40825;52.270;20.984;2023-09-07T08:21:40;20.90;;;8.40;;
54923;SDS011;40825;52.270;20.984;2023-09-07T08:24:07;18.70;;;9.50;;
54923;SDS011;40825;52.270;20.984;2023-09-07T08:26:35;17.00;;;7.50;;
54923;SDS011;40825;52.270;20.984;2023-09-07T08:29:01;20.10;;;9.40;;
54923;SDS011;40825;52.270;20.984;2023-09-07T08:31:34;17.80;;;8.10;;
54923;SDS011;40825;52.270;20.984;2023-09-07T08:34:01;17.90;;;9.00;;
54923;SDS011;40825;52.270;20.984;2023-09-07T08:36:28;18.00;;;8.00;;
54923;SDS011;40825;52.270;20.984;2023-09-07T08:38:57;16.10;;;7.70;;
54923;SDS011;40825;52.270;20.984;2023-09-07T08:41:26;18.20;;;8.70;;
54923;SDS011;40825;52.270;20.984;2023-09-07T08:43:52;16.30;;;8.40;;
54923;SDS011;40825;52.270;20.984;2023-09-07T08:46:22;20.10;;;7.90;;
54923;SDS011;40825;52.270;20.984;2023-09-07T08:48:48;13.50;;;7.50;;
54923;SDS011;40825;52.270;20.984;2023-09-07T08:51:15;18.40;;;8.20;;
54923;SDS011;40825;52.270;20.984;2023-09-07T08:53:44;13.80;;;7.00;;
54923;SDS011;40825;52.270;20.984;2023-09-07T08:56:14;15.50;;;7.30;;
54923;SDS011;40825;52.270;20.984;2023-09-07T08:58:42;17.40;;;7.10;;
54923;SDS011;40825;52.270;20.984;2023-09-07T09:01:10;15.00;;;7.10;;
54923;SDS011;40825;52.270;20.984;2023-09-07T09:03:36;12.10;;;6.50;;
54923;SDS011;40825;52.270;20.984;2023-09-07T09:06:02;15.00;;;6.90;;
54923;SDS011;40825;52.270;20.984;2023-09-07T09:08:28;13.50;;;6.20;;
54923;SDS011;40825;52.270;20.984;2023-09-07T09:10:58;11.90;;;6.10;;
54923;SDS011;40825;52.270;20.984;2023-09-07T09:13:29;13.30;;;6.20;;
54923;SDS011;40825;52.270;20.984;2023-09-07T09:18:21;16.10;;;6.00;;
54923;SDS011;40825;52.270;20.984;2023-09-07T09:20:46;14.10;;;5.50;;
54923;SDS011;40825;52.270;20.984;2023-09-07T09:23:13;13.30;;;6.00;;
54923;SDS011;40825;52.270;20.984;2023-09-07T09:25:40;11.10;;;5.60;;
54923;SDS011;40825;52.270;20.984;2023-09-07T09:28:09;10.00;;;5.10;;
54923;SDS011;40825;52.270;20.984;2023-09-07T09:30:36;11.60;;;5.40;;
54923;SDS011;40825;52.270;20.984;2023-09-07T09:33:02;9.70;;;4.40;;
54923;SDS011;40825;52.270;20.984;2023-09-07T09:35:31;8.50;;;4.20;;
54923;SDS011;40825;52.270;20.984;2023-09-07T09:38:00;10.30;;;4.90;;
54923;SDS011;40825;52.270;20.984;2023-09-07T09:40:32;10.20;;;4.60;;
54923;SDS011;40825;52.270;20.984;2023-09-07T09:43:02;10.30;;;4.20;;
54923;SDS011;40825;52.270;20.984;2023-09-07T09:45:28;12.10;;;5.00;;
54923;SDS011;40825;52.270;20.984;2023-09-07T09:47:54;7.90;;;4.50;;
54923;SDS011;40825;52.270;20.984;2023-09-07T09:50:26;8.10;;;3.60;;
54923;SDS011;40825;52.270;20.984;2023-09-07T09:52:53;10.60;;;4.00;;
54923;SDS011;40825;52.270;20.984;2023-09-07T09:55:19;10.00;;;4.10;;
54923;SDS011;40825;52.270;20.984;2023-09-07T09:57:45;7.60;;;3.50;;
54923;SDS011;40825;52.270;20.984;2023-09-07T10:00:11;6.00;;;3.30;;
54923;SDS011;40825;52.270;20.984;2023-09-07T10:03:07;7.10;;;3.10;;
54923;SDS011;40825;52.270;20.984;2023-09-07T10:05:39;6.10;;;2.70;;
54923;SDS011;40825;52.270;20.984;2023-09-07T10:08:09;6.10;;;3.00;;
54923;SDS011;40825;52.270;20.984;2023-09-07T10:10:37;7.70;;;3.30;;
54923;SDS011;40825;52.270;20.984;2023-09-07T10:13:04;6.30;;;3.10;;
54923;SDS011;40825;52.270;20.984;2023-09-07T10:15:30;5.80;;;2.70;;
54923;SDS011;40825;52.270;20.984;2023-09-07T10:18:05;5.40;;;3.10;;
54923;SDS011;40825;52.270;20.984;2023-09-07T10:23:14;9.20;;;3.70;;
54923;SDS011;40825;52.270;20.984;2023-09-07T10:25:39;6.30;;;3.00;;
54923;SDS011;40825;52.270;20.984;2023-09-07T10:28:05;7.50;;;4.30;;
54923;SDS011;40825;52.270;20.984;2023-09-07T10:30:31;6.60;;;3.50;;
54923;SDS011;40825;52.270;20.984;2023-09-07T10:32:58;5.70;;;2.90;;
54923;SDS011;40825;52.270;20.984;2023-09-07T10:35:23;7.10;;;3.30;;
54923;SDS011;40825;52.270;20.984;2023-09-07T10:37:51;7.60;;;3.30;;
54923;SDS011;40825;52.270;20.984;2023-09-07T10:40:20;5.50;;;3.50;;
54923;SDS011;40825;52.270;20.984;2023-09-07T10:42:47;7.00;;;3.80;;
54923;SDS011;40825;52.270;20.984;2023-09-07T10:45:14;6.80;;;3.60;;
54923;SDS011;40825;52.270;20.984;2023-09-07T10:47:42;6.50;;;3.00;;
54923;SDS011;40825;52.270;20.984;2023-09-07T10:50:12;7.60;;;2.90;;
54923;SDS011;40825;52.270;20.984;2023-09-07T10:52:39;6.10;;;3.00;;
54923;SDS011;40825;52.270;20.984;2023-09-07T10:55:10;6.30;;;2.90;;
54923;SDS011;40825;52.270;20.984;2023-09-07T10:57:46;5.00;;;2.50;;
54923;SDS011;40825;52.270;20.984;2023-09-07T11:00:13;8.30;;;3.10;;
54923;SDS011;40825;52.270;20.984;2023-09-07T11:02:42;5.60;;;2.40;;
54923;SDS011;40825;52.270;20.984;2023-09-07T11:05:08;5.20;;;2.30;;
54923;SDS011;40825;52.270;20.984;2023-09-07T11:07:35;6.20;;;2.70;;
54923;SDS011;40825;52.270;20.984;2023-09-07T11:10:04;4.80;;;2.40;;
54923;SDS011;40825;52.270;20.984;2023-09-07T11:12:36;4.60;;;2.30;;
54923;SDS011;40825;52.270;20.984;2023-09-07T11:15:08;6.40;;;2.80;;
54923;SDS011;40825;52.270;20.984;2023-09-07T11:17:36;5.10;;;2.40;;
54923;SDS011;40825;52.270;20.984;2023-09-07T11:20:05;5.10;;;2.80;;
54923;SDS011;40825;52.270;20.984;2023-09-07T11:22:32;6.90;;;2.50;;
54923;SDS011;40825;52.270;20.984;2023-09-07T11:25:01;5.80;;;2.80;;
54923;SDS011;40825;52.270;20.984;2023-09-07T11:27:30;4.00;;;2.30;;
54923;SDS011;40825;52.270;20.984;2023-09-07T11:29:56;5.20;;;2.50;;
54923;SDS011;40825;52.270;20.984;2023-09-07T11:32:22;7.00;;;3.10;;
54923;SDS011;40825;52.270;20.984;2023-09-07T11:34:51;6.20;;;2.90;;
54923;SDS011;40825;52.270;20.984;2023-09-07T11:37:18;5.90;;;2.70;;
54923;SDS011;40825;52.270;20.984;2023-09-07T11:39:48;6.50;;;2.90;;
54923;SDS011;40825;52.270;20.984;2023-09-07T11:42:14;6.90;;;2.90;;
54923;SDS011;40825;52.270;20.984;2023-09-07T11:44:39;7.00;;;3.00;;
54923;SDS011;40825;52.270;20.984;2023-09-07T11:47:05;5.20;;;2.80;;
54923;SDS011;40825;52.270;20.984;2023-09-07T11:49:31;6.20;;;2.50;;
54923;SDS011;40825;52.270;20.984;2023-09-07T11:51:57;5.50;;;2.50;;
54923;SDS011;40825;52.270;20.984;2023-09-07T11:54:26;5.80;;;2.30;;
54923;SDS011;40825;52.270;20.984;2023-09-07T11:56:53;4.90;;;2.10;;
54923;SDS011;40825;52.270;20.984;2023-09-07T11:59:18;8.40;;;2.60;;
54923;SDS011;40825;52.270;20.984;2023-09-07T12:01:44;6.40;;;2.20;;
54923;SDS011;40825;52.270;20.984;2023-09-07T12:04:09;4.80;;;2.20;;
54923;SDS011;40825;52.270;20.984;2023-09-07T12:06:35;9.70;;;3.30;;
54923;SDS011;40825;52.270;20.984;2023-09-07T12:09:05;6.30;;;3.10;;
54923;SDS011;40825;52.270;20.984;2023-09-07T12:11:32;8.00;;;2.80;;
54923;SDS011;40825;52.270;20.984;2023-09-07T12:13:58;5.80;;;2.10;;
54923;SDS011;40825;52.270;20.984;2023-09-07T12:16:25;7.00;;;2.40;;
54923;SDS011;40825;52.270;20.984;2023-09-07T12:18:51;7.80;;;2.40;;
54923;SDS011;40825;52.270;20.984;2023-09-07T12:21:17;11.10;;;2.60;;
54923;SDS011;40825;52.270;20.984;2023-09-07T12:23:42;7.70;;;3.00;;
54923;SDS011;40825;52.270;20.984;2023-09-07T12:26:12;7.20;;;2.60;;
54923;SDS011;40825;52.270;20.984;2023-09-07T12:28:39;5.50;;;3.10;;
54923;SDS011;40825;52.270;20.984;2023-09-07T12:31:05;6.30;;;2.00;;
54923;SDS011;40825;52.270;20.984;2023-09-07T12:33:31;4.50;;;2.20;;
54923;SDS011;40825;52.270;20.984;2023-09-07T12:35:58;4.20;;;1.60;;
54923;SDS011;40825;52.270;20.984;2023-09-07T12:38:24;5.00;;;2.10;;
54923;SDS011;40825;52.270;20.984;2023-09-07T12:40:53;3.10;;;1.60;;
54923;SDS011;40825;52.270;20.984;2023-09-07T12:43:19;6.70;;;2.10;;
54923;SDS011;40825;52.270;20.984;2023-09-07T12:45:45;6.80;;;2.60;;
54923;SDS011;40825;52.270;20.984;2023-09-07T12:48:12;4.90;;;2.00;;
54923;SDS011;40825;52.270;20.984;2023-09-07T12:50:37;5.00;;;1.80;;
54923;SDS011;40825;52.270;20.984;2023-09-07T12:53:04;6.00;;;1.90;;
54923;SDS011;40825;52.270;20.984;2023-09-07T12:55:29;5.30;;;2.00;;
54923;SDS011;40825;52.270;20.984;2023-09-07T12:57:55;4.30;;;1.80;;
54923;SDS011;40825;52.270;20.984;2023-09-07T13:00:21;3.80;;;1.80;;
54923;SDS011;40825;52.270;20.984;2023-09-07T13:02:46;4.10;;;1.90;;
54923;SDS011;40825;52.270;20.984;2023-09-07T13:05:13;6.00;;;2.10;;
54923;SDS011;40825;52.270;20.984;2023-09-07T13:07:38;6.20;;;2.50;;
54923;SDS011;40825;52.270;20.984;2023-09-07T13:10:06;3.80;;;1.70;;
54923;SDS011;40825;52.270;20.984;2023-09-07T13:12:32;5.10;;;2.00;;
54923;SDS011;40825;52.270;20.984;2023-09-07T13:14:58;3.60;;;1.60;;
54923;SDS011;40825;52.270;20.984;2023-09-07T13:17:23;4.70;;;1.90;;
54923;SDS011;40825;52.270;20.984;2023-09-07T13:19:49;7.30;;;2.20;;
54923;SDS011;40825;52.270;20.984;2023-09-07T13:22:14;5.00;;;1.70;;
54923;SDS011;40825;52.270;20.984;2023-09-07T13:24:40;5.40;;;2.10;;
54923;SDS011;40825;52.270;20.984;2023-09-07T13:27:05;3.60;;;1.60;;
54923;SDS011;40825;52.270;20.984;2023-09-07T13:29:31;4.00;;;1.50;;
54923;SDS011;40825;52.270;20.984;2023-09-07T13:31:57;6.80;;;2.00;;
54923;SDS011;40825;52.270;20.984;2023-09-07T13:34:23;7.50;;;2.10;;
54923;SDS011;40825;52.270;20.984;2023-09-07T13:36:50;3.70;;;1.40;;
54923;SDS011;40825;52.270;20.984;2023-09-07T13:39:15;5.30;;;2.10;;
54923;SDS011;40825;52.270;20.984;2023-09-07T13:41:41;4.90;;;1.90;;
54923;SDS011;40825;52.270;20.984;2023-09-07T13:44:06;4.90;;;1.90;;
54923;SDS011;40825;52.270;20.984;2023-09-07T13:46:33;4.20;;;1.70;;
54923;SDS011;40825;52.270;20.984;2023-09-07T13:48:58;5.60;;;1.90;;
54923;SDS011;40825;52.270;20.984;2023-09-07T13:51:25;6.30;;;2.10;;
54923;SDS011;40825;52.270;20.984;2023-09-07T13:53:51;4.70;;;2.20;;
54923;SDS011;40825;52.270;20.984;2023-09-07T13:56:17;5.00;;;2.20;;
54923;SDS011;40825;52.270;20.984;2023-09-07T13:58:43;3.40;;;1.70;;
54923;SDS011;40825;52.270;20.984;2023-09-07T14:01:08;5.10;;;1.80;;
54923;SDS011;40825;52.270;20.984;2023-09-07T14:03:34;3.70;;;1.60;;
54923;SDS011;40825;52.270;20.984;2023-09-07T14:06:00;7.00;;;2.10;;
54923;SDS011;40825;52.270;20.984;2023-09-07T14:08:25;6.60;;;2.40;;
54923;SDS011;40825;52.270;20.984;2023-09-07T14:10:51;4.80;;;1.90;;
54923;SDS011;40825;52.270;20.984;2023-09-07T14:13:18;5.70;;;2.40;;
54923;SDS011;40825;52.270;20.984;2023-09-07T14:15:43;5.60;;;1.70;;
54923;SDS011;40825;52.270;20.984;2023-09-07T14:18:10;5.90;;;3.00;;
54923;SDS011;40825;52.270;20.984;2023-09-07T14:20:35;4.40;;;2.80;;
54923;SDS011;40825;52.270;20.984;2023-09-07T14:23:01;7.00;;;2.70;;
54923;SDS011;40825;52.270;20.984;2023-09-07T14:25:27;5.20;;;1.80;;
54923;SDS011;40825;52.270;20.984;2023-09-07T14:27:52;6.60;;;2.70;;